Lava Hot Springs, Idaho
Current Conditions -  °F | °C
As of 4:53 PM on Saturday 25 Oct 2014 (Local Time) from KPIH Reporting Station
Clear Clear  
Wind Chill: 71°   Ceiling: Unl
Heat Index: 71°   Visibility: 10mi
Dew Point: 32°   Wind: 14mph
Humidity: 24%   Direction: 200°SSW
Pressure: 29.9"   Gusts: 24mph
Location:  42.62°N, 112.01°W
Report Text: KPIH 252253Z 20012G21KT 10SM CLR 22/00 A2990 RMK AO2 PK WND 19028/2155 SLP103 T02170000
Loading
Personal Weather Stations






























Interactive Weather Map
Tropical Storm Tracking
New forecast layout! Learn more

10-Day Weather Forecast

Advertisements
Track Severe Weather on mobile